sensor_id;sensor_type;location;lat;lon;timestamp;pressure;altitude;pressure_sealevel;temperature;humidity
57606;BME280;43430;48.204;11.556;2022-08-21T00:01:11;96033.00;;;15.72;100.00
57606;BME280;43430;48.204;11.556;2022-08-21T00:03:38;96037.50;;;15.66;100.00
57606;BME280;43430;48.204;11.556;2022-08-21T00:06:04;96040.16;;;15.66;100.00
57606;BME280;43430;48.204;11.556;2022-08-21T00:08:29;96040.34;;;15.64;100.00
57606;BME280;43430;48.204;11.556;2022-08-21T00:10:55;96037.00;;;15.69;100.00
57606;BME280;43430;48.204;11.556;2022-08-21T00:13:20;96037.41;;;15.61;100.00
57606;BME280;43430;48.204;11.556;2022-08-21T00:15:47;96032.09;;;15.61;100.00
57606;BME280;43430;48.204;11.556;2022-08-21T00:18:13;96043.47;;;15.56;100.00
57606;BME280;43430;48.204;11.556;2022-08-21T00:20:39;96040.75;;;15.51;100.00
57606;BME280;43430;48.204;11.556;2022-08-21T00:23:05;96037.00;;;15.47;100.00
57606;BME280;43430;48.204;11.556;2022-08-21T00:25:32;96035.44;;;15.51;100.00
57606;BME280;43430;48.204;11.556;2022-08-21T00:27:58;96040.97;;;15.44;100.00
57606;BME280;43430;48.204;11.556;2022-08-21T00:30:25;96034.34;;;15.47;100.00
57606;BME280;43430;48.204;11.556;2022-08-21T00:32:53;96035.16;;;15.48;100.00
57606;BME280;43430;48.204;11.556;2022-08-21T00:35:23;96033.84;;;15.50;100.00
57606;BME280;43430;48.204;11.556;2022-08-21T00:37:49;96027.44;;;15.46;100.00
57606;BME280;43430;48.204;11.556;2022-08-21T00:40:18;96031.16;;;15.45;100.00
57606;BME280;43430;48.204;11.556;2022-08-21T00:42:44;96024.22;;;15.44;100.00
57606;BME280;43430;48.204;11.556;2022-08-21T00:45:13;96024.41;;;15.37;100.00
57606;BME280;43430;48.204;11.556;2022-08-21T00:47:39;96028.03;;;15.26;100.00
57606;BME280;43430;48.204;11.556;2022-08-21T00:50:06;96038.34;;;15.23;100.00
57606;BME280;43430;48.204;11.556;2022-08-21T00:52:34;96041.19;;;15.16;100.00
57606;BME280;43430;48.204;11.556;2022-08-21T00:55:00;96038.34;;;15.23;100.00
57606;BME280;43430;48.204;11.556;2022-08-21T00:57:36;96034.63;;;15.24;100.00
57606;BME280;43430;48.204;11.556;2022-08-21T01:00:07;96025.56;;;15.19;100.00
57606;BME280;43430;48.204;11.556;2022-08-21T01:02:33;96019.16;;;15.15;100.00
57606;BME280;43430;48.204;11.556;2022-08-21T01:04:59;96020.22;;;15.14;100.00
57606;BME280;43430;48.204;11.556;2022-08-21T01:07:24;96022.88;;;15.14;100.00
57606;BME280;43430;48.204;11.556;2022-08-21T01:09:50;96015.38;;;15.11;100.00
57606;BME280;43430;48.204;11.556;2022-08-21T01:12:16;96021.69;;;15.05;100.00
57606;BME280;43430;48.204;11.556;2022-08-21T01:14:43;96016.38;;;15.05;100.00
57606;BME280;43430;48.204;11.556;2022-08-21T01:17:11;96014.00;;;15.04;100.00
57606;BME280;43430;48.204;11.556;2022-08-21T01:19:38;96009.97;;;15.01;100.00
57606;BME280;43430;48.204;11.556;2022-08-21T01:22:03;96009.47;;;15.04;100.00
57606;BME280;43430;48.204;11.556;2022-08-21T01:24:29;96008.16;;;15.07;100.00
57606;BME280;43430;48.204;11.556;2022-08-21T01:26:57;96003.66;;;15.07;100.00
57606;BME280;43430;48.204;11.556;2022-08-21T01:29:39;96007.81;;;14.98;100.00
57606;BME280;43430;48.204;11.556;2022-08-21T01:32:12;96006.44;;;14.95;100.00
57606;BME280;43430;48.204;11.556;2022-08-21T01:34:41;96013.34;;;14.96;100.00
57606;BME280;43430;48.204;11.556;2022-08-21T01:37:08;96010.47;;;14.98;100.00
57606;BME280;43430;48.204;11.556;2022-08-21T01:39:34;96012.31;;;14.98;100.00
57606;BME280;43430;48.204;11.556;2022-08-21T01:42:00;96008.22;;;14.90;100.00
57606;BME280;43430;48.204;11.556;2022-08-21T01:44:26;96005.34;;;14.91;100.00
57606;BME280;43430;48.204;11.556;2022-08-21T01:46:52;96017.75;;;14.86;100.00
57606;BME280;43430;48.204;11.556;2022-08-21T01:49:18;96023.84;;;14.86;100.00
57606;BME280;43430;48.204;11.556;2022-08-21T01:51:44;96014.06;;;14.87;100.00
57606;BME280;43430;48.204;11.556;2022-08-21T01:54:10;96010.34;;;14.88;100.00
57606;BME280;43430;48.204;11.556;2022-08-21T01:56:40;96010.53;;;14.81;100.00
57606;BME280;43430;48.204;11.556;2022-08-21T01:59:07;96002.81;;;14.80;100.00
57606;BME280;43430;48.204;11.556;2022-08-21T02:01:33;95995.34;;;14.77;100.00
57606;BME280;43430;48.204;11.556;2022-08-21T02:03:58;95993.19;;;14.74;100.00
57606;BME280;43430;48.204;11.556;2022-08-21T02:06:24;95996.88;;;14.72;100.00
57606;BME280;43430;48.204;11.556;2022-08-21T02:08:50;95994.78;;;14.75;100.00
57606;BME280;43430;48.204;11.556;2022-08-21T02:11:16;95989.75;;;14.73;100.00
57606;BME280;43430;48.204;11.556;2022-08-21T02:13:41;95990.22;;;14.70;100.00
57606;BME280;43430;48.204;11.556;2022-08-21T02:16:07;95991.25;;;14.69;100.00
57606;BME280;43430;48.204;11.556;2022-08-21T02:18:34;95990.47;;;14.68;100.00
57606;BME280;43430;48.204;11.556;2022-08-21T02:21:00;95984.84;;;14.65;100.00
57606;BME280;43430;48.204;11.556;2022-08-21T02:23:25;95995.22;;;14.66;100.00
57606;BME280;43430;48.204;11.556;2022-08-21T02:25:51;95989.34;;;14.64;100.00
57606;BME280;43430;48.204;11.556;2022-08-21T02:28:16;95988.78;;;14.62;100.00
57606;BME280;43430;48.204;11.556;2022-08-21T02:30:46;95997.44;;;14.53;100.00
57606;BME280;43430;48.204;11.556;2022-08-21T02:33:12;95995.00;;;14.51;100.00
57606;BME280;43430;48.204;11.556;2022-08-21T02:35:40;95992.13;;;14.53;100.00
57606;BME280;43430;48.204;11.556;2022-08-21T02:38:13;95990.81;;;14.55;100.00
57606;BME280;43430;48.204;11.556;2022-08-21T02:40:41;95990.28;;;14.53;100.00
57606;BME280;43430;48.204;11.556;2022-08-21T02:43:08;95991.78;;;14.49;100.00
57606;BME280;43430;48.204;11.556;2022-08-21T02:45:34;95991.78;;;14.49;100.00
57606;BME280;43430;48.204;11.556;2022-08-21T02:48:06;95991.41;;;14.40;100.00
57606;BME280;43430;48.204;11.556;2022-08-21T02:50:36;95978.72;;;14.42;100.00
57606;BME280;43430;48.204;11.556;2022-08-21T02:53:03;95985.88;;;14.42;100.00
57606;BME280;43430;48.204;11.556;2022-08-21T02:55:30;95978.94;;;14.41;100.00
57606;BME280;43430;48.204;11.556;2022-08-21T02:57:57;95982.66;;;14.40;100.00
57606;BME280;43430;48.204;11.556;2022-08-21T03:00:24;95982.34;;;14.36;100.00
57606;BME280;43430;48.204;11.556;2022-08-21T03:02:50;95974.38;;;14.36;100.00
57606;BME280;43430;48.204;11.556;2022-08-21T03:05:17;95988.44;;;14.37;100.00
57606;BME280;43430;48.204;11.556;2022-08-21T03:07:44;95986.84;;;14.36;100.00
57606;BME280;43430;48.204;11.556;2022-08-21T03:10:11;95992.47;;;14.39;100.00
57606;BME280;43430;48.204;11.556;2022-08-21T03:12:36;95987.94;;;14.40;100.00
57606;BME280;43430;48.204;11.556;2022-08-21T03:15:04;95985.88;;;14.42;100.00
57606;BME280;43430;48.204;11.556;2022-08-21T03:17:31;95991.72;;;14.44;100.00
57606;BME280;43430;48.204;11.556;2022-08-21T03:19:57;95993.81;;;14.42;100.00
57606;BME280;43430;48.204;11.556;2022-08-21T03:22:23;95993.16;;;14.35;100.00
57606;BME280;43430;48.204;11.556;2022-08-21T03:24:48;95995.66;;;14.41;100.00
57606;BME280;43430;48.204;11.556;2022-08-21T03:27:13;95990.59;;;14.40;100.00
57606;BME280;43430;48.204;11.556;2022-08-21T03:29:40;95994.84;;;14.41;100.00
57606;BME280;43430;48.204;11.556;2022-08-21T03:32:06;95988.44;;;14.37;100.00
57606;BME280;43430;48.204;11.556;2022-08-21T03:34:35;95986.53;;;14.32;100.00
57606;BME280;43430;48.204;11.556;2022-08-21T03:37:01;95997.38;;;14.31;100.00
57606;BME280;43430;48.204;11.556;2022-08-21T03:39:26;95992.22;;;14.24;100.00
57606;BME280;43430;48.204;11.556;2022-08-21T03:41:52;95994.41;;;14.27;100.00
57606;BME280;43430;48.204;11.556;2022-08-21T03:44:18;95996.25;;;14.27;100.00
57606;BME280;43430;48.204;11.556;2022-08-21T03:46:43;95996.69;;;14.18;100.00
57606;BME280;43430;48.204;11.556;2022-08-21T03:49:08;95989.44;;;14.14;100.00
57606;BME280;43430;48.204;11.556;2022-08-21T03:51:34;95996.06;;;14.11;100.00
57606;BME280;43430;48.204;11.556;2022-08-21T03:54:00;95993.13;;;14.13;100.00
57606;BME280;43430;48.204;11.556;2022-08-21T03:56:26;96001.66;;;14.15;100.00
57606;BME280;43430;48.204;11.556;2022-08-21T03:58:51;96013.06;;;14.15;100.00
57606;BME280;43430;48.204;11.556;2022-08-21T04:01:16;96003.25;;;14.16;100.00
57606;BME280;43430;48.204;11.556;2022-08-21T04:03:42;96008.09;;;14.19;100.00
57606;BME280;43430;48.204;11.556;2022-08-21T04:06:08;96001.97;;;14.18;100.00
57606;BME280;43430;48.204;11.556;2022-08-21T04:08:33;96005.66;;;14.17;100.00
57606;BME280;43430;48.204;11.556;2022-08-21T04:11:00;96002.47;;;14.15;100.00
57606;BME280;43430;48.204;11.556;2022-08-21T04:13:26;96005.91;;;14.16;100.00
57606;BME280;43430;48.204;11.556;2022-08-21T04:15:53;95998.22;;;14.14;100.00
57606;BME280;43430;48.204;11.556;2022-08-21T04:18:18;96009.84;;;14.13;100.00
57606;BME280;43430;48.204;11.556;2022-08-21T04:20:45;96004.53;;;14.13;100.00
57606;BME280;43430;48.204;11.556;2022-08-21T04:23:11;96014.63;;;14.11;100.00
57606;BME280;43430;48.204;11.556;2022-08-21T04:25:37;96021.50;;;14.12;100.00
57606;BME280;43430;48.204;11.556;2022-08-21T04:28:03;96017.75;;;14.08;100.00
57606;BME280;43430;48.204;11.556;2022-08-21T04:30:28;96018.22;;;14.05;100.00
57606;BME280;43430;48.204;11.556;2022-08-21T04:32:55;96024.66;;;14.09;100.00
57606;BME280;43430;48.204;11.556;2022-08-21T04:35:22;96024.91;;;14.08;100.00
57606;BME280;43430;48.204;11.556;2022-08-21T04:37:48;96031.22;;;14.07;100.00
57606;BME280;43430;48.204;11.556;2022-08-21T04:40:15;96034.13;;;14.05;100.00
57606;BME280;43430;48.204;11.556;2022-08-21T04:42:46;96040.56;;;14.09;100.00
57606;BME280;43430;48.204;11.556;2022-08-21T04:45:30;96036.78;;;14.05;100.00
57606;BME280;43430;48.204;11.556;2022-08-21T04:47:58;96037.59;;;14.06;100.00
57606;BME280;43430;48.204;11.556;2022-08-21T04:50:29;96041.03;;;14.06;100.00
57606;BME280;43430;48.204;11.556;2022-08-21T04:52:55;96040.22;;;14.06;100.00
57606;BME280;43430;48.204;11.556;2022-08-21T04:55:22;96047.94;;;14.07;100.00
57606;BME280;43430;48.204;11.556;2022-08-21T04:57:49;96041.84;;;14.07;100.00
57606;BME280;43430;48.204;11.556;2022-08-21T05:00:16;96050.09;;;14.10;100.00
57606;BME280;43430;48.204;11.556;2022-08-21T05:02:43;96041.34;;;14.10;100.00
57606;BME280;43430;48.204;11.556;2022-08-21T05:05:09;96042.16;;;14.10;100.00
57606;BME280;43430;48.204;11.556;2022-08-21T05:07:35;96042.72;;;14.12;100.00
57606;BME280;43430;48.204;11.556;2022-08-21T05:10:02;96036.38;;;14.13;100.00
57606;BME280;43430;48.204;11.556;2022-08-21T05:12:28;96034.84;;;14.17;100.00
57606;BME280;43430;48.204;11.556;2022-08-21T05:14:55;96039.91;;;14.19;100.00
57606;BME280;43430;48.204;11.556;2022-08-21T05:17:21;96043.41;;;14.24;100.00
57606;BME280;43430;48.204;11.556;2022-08-21T05:19:46;96040.28;;;14.28;100.00
57606;BME280;43430;48.204;11.556;2022-08-21T05:22:19;96045.69;;;14.33;100.00
57606;BME280;43430;48.204;11.556;2022-08-21T05:24:44;96045.69;;;14.33;100.00
57606;BME280;43430;48.204;11.556;2022-08-21T05:27:09;96049.75;;;14.40;100.00
57606;BME280;43430;48.204;11.556;2022-08-21T05:29:34;96048.00;;;14.46;100.00
57606;BME280;43430;48.204;11.556;2022-08-21T05:32:00;96044.84;;;14.49;100.00
57606;BME280;43430;48.204;11.556;2022-08-21T05:34:25;96049.19;;;14.55;100.00
57606;BME280;43430;48.204;11.556;2022-08-21T05:36:51;96052.16;;;14.59;100.00
57606;BME280;43430;48.204;11.556;2022-08-21T05:39:16;96055.22;;;14.67;100.00
57606;BME280;43430;48.204;11.556;2022-08-21T05:41:42;96049.94;;;14.72;100.00
57606;BME280;43430;48.204;11.556;2022-08-21T05:44:07;96055.16;;;14.84;100.00
57606;BME280;43430;48.204;11.556;2022-08-21T05:46:33;96050.22;;;14.93;100.00
57606;BME280;43430;48.204;11.556;2022-08-21T05:48:58;96057.28;;;15.04;100.00
57606;BME280;43430;48.204;11.556;2022-08-21T05:51:23;96056.81;;;15.12;100.00
57606;BME280;43430;48.204;11.556;2022-08-21T05:53:49;96056.97;;;15.28;100.00
57606;BME280;43430;48.204;11.556;2022-08-21T05:56:15;96054.00;;;15.46;100.00
57606;BME280;43430;48.204;11.556;2022-08-21T05:58:41;96059.34;;;15.51;100.00
57606;BME280;43430;48.204;11.556;2022-08-21T06:01:07;96057.91;;;15.65;100.00
57606;BME280;43430;48.204;11.556;2022-08-21T06:03:37;96060.38;;;15.72;100.00
57606;BME280;43430;48.204;11.556;2022-08-21T06:06:03;96064.00;;;15.88;100.00
57606;BME280;43430;48.204;11.556;2022-08-21T06:08:29;96053.63;;;15.86;100.00
57606;BME280;43430;48.204;11.556;2022-08-21T06:10:56;96054.56;;;15.75;100.00
57606;BME280;43430;48.204;11.556;2022-08-21T06:13:23;96060.75;;;15.81;100.00
57606;BME280;43430;48.204;11.556;2022-08-21T06:15:49;96056.63;;;15.95;100.00
57606;BME280;43430;48.204;11.556;2022-08-21T06:18:16;96058.72;;;15.93;100.00
57606;BME280;43430;48.204;11.556;2022-08-21T06:20:42;96055.53;;;15.96;100.00
57606;BME280;43430;48.204;11.556;2022-08-21T06:23:08;96058.88;;;16.13;100.00
57606;BME280;43430;48.204;11.556;2022-08-21T06:25:34;96058.06;;;16.13;100.00
57606;BME280;43430;48.204;11.556;2022-08-21T06:28:07;96059.41;;;16.10;100.00
57606;BME280;43430;48.204;11.556;2022-08-21T06:30:33;96057.03;;;16.14;100.00
57606;BME280;43430;48.204;11.556;2022-08-21T06:32:58;96058.94;;;16.24;100.00
57606;BME280;43430;48.204;11.556;2022-08-21T06:35:24;96054.69;;;16.18;100.00
57606;BME280;43430;48.204;11.556;2022-08-21T06:37:50;96057.34;;;16.18;100.00
57606;BME280;43430;48.204;11.556;2022-08-21T06:40:16;96062.09;;;16.16;100.00
57606;BME280;43430;48.204;11.556;2022-08-21T06:42:41;96059.00;;;16.29;100.00
57606;BME280;43430;48.204;11.556;2022-08-21T06:45:07;96055.84;;;16.37;100.00
57606;BME280;43430;48.204;11.556;2022-08-21T06:47:33;96054.53;;;16.34;100.00
57606;BME280;43430;48.204;11.556;2022-08-21T06:49:58;96053.97;;;16.32;100.00
57606;BME280;43430;48.204;11.556;2022-08-21T06:52:24;96047.41;;;16.45;100.00
57606;BME280;43430;48.204;11.556;2022-08-21T06:54:49;96048.72;;;16.48;100.00
57606;BME280;43430;48.204;11.556;2022-08-21T06:57:15;96043.63;;;16.41;100.00
57606;BME280;43430;48.204;11.556;2022-08-21T06:59:40;96045.25;;;16.42;100.00
57606;BME280;43430;48.204;11.556;2022-08-21T07:02:05;96039.25;;;16.62;100.00
57606;BME280;43430;48.204;11.556;2022-08-21T07:04:31;96048.03;;;16.63;100.00
57606;BME280;43430;48.204;11.556;2022-08-21T07:06:56;96047.25;;;16.67;100.00
57606;BME280;43430;48.204;11.556;2022-08-21T07:09:21;96053.97;;;16.75;99.71
57606;BME280;43430;48.204;11.556;2022-08-21T07:11:50;96052.41;;;16.79;98.83
57606;BME280;43430;48.204;11.556;2022-08-21T07:14:16;96048.41;;;16.81;98.68
57606;BME280;43430;48.204;11.556;2022-08-21T07:16:41;96045.78;;;16.87;95.26
57606;BME280;43430;48.204;11.556;2022-08-21T07:19:07;96046.56;;;16.82;93.66
57606;BME280;43430;48.204;11.556;2022-08-21T07:21:32;96036.69;;;16.82;92.75
57606;BME280;43430;48.204;11.556;2022-08-21T07:23:57;96043.94;;;16.87;94.89
57606;BME280;43430;48.204;11.556;2022-08-21T07:26:24;96038.09;;;16.95;94.29
57606;BME280;43430;48.204;11.556;2022-08-21T07:28:50;96042.38;;;17.01;93.81
57606;BME280;43430;48.204;11.556;2022-08-21T07:31:17;96036.81;;;17.08;93.89
57606;BME280;43430;48.204;11.556;2022-08-21T07:33:43;96034.69;;;17.10;93.55
57606;BME280;43430;48.204;11.556;2022-08-21T07:36:09;96035.47;;;17.05;91.14
57606;BME280;43430;48.204;11.556;2022-08-21T07:38:35;96033.31;;;17.02;93.36
57606;BME280;43430;48.204;11.556;2022-08-21T07:41:01;96026.97;;;17.08;94.39
57606;BME280;43430;48.204;11.556;2022-08-21T07:43:27;96036.34;;;17.21;95.27
57606;BME280;43430;48.204;11.556;2022-08-21T07:45:53;96033.69;;;17.31;93.95
57606;BME280;43430;48.204;11.556;2022-08-21T07:48:20;96033.44;;;17.33;91.34
57606;BME280;43430;48.204;11.556;2022-08-21T07:50:45;96036.13;;;17.38;91.99
57606;BME280;43430;48.204;11.556;2022-08-21T07:53:11;96026.53;;;17.47;92.15
57606;BME280;43430;48.204;11.556;2022-08-21T07:55:36;96028.94;;;17.54;90.88
57606;BME280;43430;48.204;11.556;2022-08-21T07:58:02;96028.94;;;17.54;92.15
57606;BME280;43430;48.204;11.556;2022-08-21T08:00:28;96029.75;;;17.60;92.17
57606;BME280;43430;48.204;11.556;2022-08-21T08:02:55;96016.16;;;17.61;91.73
57606;BME280;43430;48.204;11.556;2022-08-21T08:05:26;96016.16;;;17.66;89.90
57606;BME280;43430;48.204;11.556;2022-08-21T08:07:52;96012.69;;;17.71;90.72
57606;BME280;43430;48.204;11.556;2022-08-21T08:10:18;96025.81;;;17.83;90.12
57606;BME280;43430;48.204;11.556;2022-08-21T08:12:44;96021.00;;;17.85;88.96
57606;BME280;43430;48.204;11.556;2022-08-21T08:15:20;96021.53;;;17.97;89.42
57606;BME280;43430;48.204;11.556;2022-08-21T08:17:46;96021.53;;;18.07;88.94
57606;BME280;43430;48.204;11.556;2022-08-21T08:20:14;96013.00;;;18.15;88.22
57606;BME280;43430;48.204;11.556;2022-08-21T08:22:40;96019.66;;;18.18;86.19
57606;BME280;43430;48.204;11.556;2022-08-21T08:25:07;96017.78;;;18.29;87.91
57606;BME280;43430;48.204;11.556;2022-08-21T08:27:33;96021.25;;;18.34;86.92
57606;BME280;43430;48.204;11.556;2022-08-21T08:29:58;96014.28;;;18.33;86.84
57606;BME280;43430;48.204;11.556;2022-08-21T08:32:24;96013.75;;;18.46;87.35
57606;BME280;43430;48.204;11.556;2022-08-21T08:34:50;96012.09;;;18.66;88.52
57606;BME280;43430;48.204;11.556;2022-08-21T08:37:18;96012.91;;;18.56;87.30
57606;BME280;43430;48.204;11.556;2022-08-21T08:39:44;96014.25;;;18.54;88.99
57606;BME280;43430;48.204;11.556;2022-08-21T08:42:25;96002.75;;;18.63;89.12
57606;BME280;43430;48.204;11.556;2022-08-21T08:44:56;96005.13;;;18.65;87.90
57606;BME280;43430;48.204;11.556;2022-08-21T08:47:24;96005.63;;;18.82;86.91
57606;BME280;43430;48.204;11.556;2022-08-21T08:50:17;96005.59;;;18.97;85.45
57606;BME280;43430;48.204;11.556;2022-08-21T08:52:49;96003.22;;;18.96;86.28
57606;BME280;43430;48.204;11.556;2022-08-21T08:55:41;95998.88;;;19.10;85.32
57606;BME280;43430;48.204;11.556;2022-08-21T08:58:06;95995.00;;;19.27;85.13
57606;BME280;43430;48.204;11.556;2022-08-21T09:00:32;96000.28;;;19.37;83.81
57606;BME280;43430;48.204;11.556;2022-08-21T09:03:00;96004.84;;;19.36;83.41
57606;BME280;43430;48.204;11.556;2022-08-21T09:05:28;96005.41;;;19.33;83.42
57606;BME280;43430;48.204;11.556;2022-08-21T09:08:31;96004.59;;;19.38;83.72
57606;BME280;43430;48.204;11.556;2022-08-21T09:16:24;95997.56;;;19.47;82.16
57606;BME280;43430;48.204;11.556;2022-08-21T09:29:19;95993.47;;;19.60;83.82
57606;BME280;43430;48.204;11.556;2022-08-21T09:31:47;95998.28;;;19.58;79.62
57606;BME280;43430;48.204;11.556;2022-08-21T09:34:27;95996.75;;;19.52;80.80
57606;BME280;43430;48.204;11.556;2022-08-21T09:36:54;95995.03;;;19.71;82.61
57606;BME280;43430;48.204;11.556;2022-08-21T09:39:32;95997.84;;;19.85;82.50
57606;BME280;43430;48.204;11.556;2022-08-21T09:42:04;95992.81;;;19.78;81.23
57606;BME280;43430;48.204;11.556;2022-08-21T09:44:36;95984.31;;;20.05;83.08
57606;BME280;43430;48.204;11.556;2022-08-21T09:47:07;95987.88;;;20.25;81.21
57606;BME280;43430;48.204;11.556;2022-08-21T09:49:36;95984.22;;;20.15;79.67
57606;BME280;43430;48.204;11.556;2022-08-21T09:52:04;95985.34;;;20.38;77.28
57606;BME280;43430;48.204;11.556;2022-08-21T09:54:35;95982.56;;;20.49;79.09
57606;BME280;43430;48.204;11.556;2022-08-21T09:59:52;95979.31;;;20.23;74.48
57606;BME280;43430;48.204;11.556;2022-08-21T10:02:32;95973.94;;;20.28;79.13
57606;BME280;43430;48.204;11.556;2022-08-21T10:05:07;95976.19;;;20.45;78.93
57606;BME280;43430;48.204;11.556;2022-08-21T10:07:36;95980.88;;;20.82;77.14
57606;BME280;43430;48.204;11.556;2022-08-21T10:10:06;95981.22;;;20.75;76.91
57606;BME280;43430;48.204;11.556;2022-08-21T10:23:26;95980.13;;;20.23;79.88
57606;BME280;43430;48.204;11.556;2022-08-21T10:28:53;95976.47;;;20.67;81.18
57606;BME280;43430;48.204;11.556;2022-08-21T10:34:55;95958.66;;;21.00;74.93
57606;BME280;43430;48.204;11.556;2022-08-21T10:37:41;95964.19;;;21.28;75.05
57606;BME280;43430;48.204;11.556;2022-08-21T10:48:37;95957.41;;;21.87;71.84
57606;BME280;43430;48.204;11.556;2022-08-21T10:51:16;95954.13;;;21.39;72.12
57606;BME280;43430;48.204;11.556;2022-08-21T10:56:41;95951.84;;;21.08;73.25
57606;BME280;43430;48.204;11.556;2022-08-21T10:59:31;95950.72;;;21.52;71.77
57606;BME280;43430;48.204;11.556;2022-08-21T11:02:02;95945.34;;;21.52;72.79
57606;BME280;43430;48.204;11.556;2022-08-21T11:07:21;95949.88;;;21.38;71.11
57606;BME280;43430;48.204;11.556;2022-08-21T11:09:49;95941.16;;;21.46;70.04
57606;BME280;43430;48.204;11.556;2022-08-21T11:12:25;95938.72;;;21.25;68.13
57606;BME280;43430;48.204;11.556;2022-08-21T11:15:02;95939.47;;;21.31;66.32
57606;BME280;43430;48.204;11.556;2022-08-21T11:17:38;95936.22;;;21.53;66.43
57606;BME280;43430;48.204;11.556;2022-08-21T11:20:13;95925.94;;;21.74;63.99
57606;BME280;43430;48.204;11.556;2022-08-21T11:22:49;95931.81;;;21.76;65.73
57606;BME280;43430;48.204;11.556;2022-08-21T11:25:25;95927.06;;;21.87;64.20
57606;BME280;43430;48.204;11.556;2022-08-21T11:28:01;95918.72;;;22.21;62.82
57606;BME280;43430;48.204;11.556;2022-08-21T11:30:44;95922.69;;;22.23;62.05
57606;BME280;43430;48.204;11.556;2022-08-21T11:38:40;95916.81;;;22.21;56.62
57606;BME280;43430;48.204;11.556;2022-08-21T11:41:28;95922.94;;;22.08;59.60
57606;BME280;43430;48.204;11.556;2022-08-21T11:47:19;95919.25;;;22.04;58.09
57606;BME280;43430;48.204;11.556;2022-08-21T11:49:57;95907.53;;;22.00;57.28
57606;BME280;43430;48.204;11.556;2022-08-21T11:52:40;95914.47;;;22.01;58.04
57606;BME280;43430;48.204;11.556;2022-08-21T11:55:15;95907.94;;;22.07;54.52
57606;BME280;43430;48.204;11.556;2022-08-21T11:57:56;95912.72;;;22.10;56.41
57606;BME280;43430;48.204;11.556;2022-08-21T12:00:33;95912.31;;;22.03;59.80
57606;BME280;43430;48.204;11.556;2022-08-21T12:03:29;95902.34;;;22.03;56.71
57606;BME280;43430;48.204;11.556;2022-08-21T12:06:02;95899.34;;;21.91;58.45
57606;BME280;43430;48.204;11.556;2022-08-21T12:08:33;95893.59;;;22.12;57.84
57606;BME280;43430;48.204;11.556;2022-08-21T12:14:16;95896.47;;;22.01;56.53
57606;BME280;43430;48.204;11.556;2022-08-21T12:16:44;95896.56;;;21.83;57.93
57606;BME280;43430;48.204;11.556;2022-08-21T12:22:06;95890.94;;;22.25;57.04
57606;BME280;43430;48.204;11.556;2022-08-21T12:24:40;95876.50;;;22.63;54.14
57606;BME280;43430;48.204;11.556;2022-08-21T12:28:02;95869.59;;;22.84;53.25
57606;BME280;43430;48.204;11.556;2022-08-21T12:30:43;95870.34;;;23.12;53.07
57606;BME280;43430;48.204;11.556;2022-08-21T12:33:27;95872.50;;;23.24;48.15
57606;BME280;43430;48.204;11.556;2022-08-21T12:36:03;95869.63;;;23.20;50.50
57606;BME280;43430;48.204;11.556;2022-08-21T12:38:45;95866.63;;;23.22;49.93
57606;BME280;43430;48.204;11.556;2022-08-21T12:41:19;95869.25;;;23.13;47.46
57606;BME280;43430;48.204;11.556;2022-08-21T12:44:15;95868.88;;;23.29;48.59
57606;BME280;43430;48.204;11.556;2022-08-21T12:46:56;95868.41;;;23.27;48.25
57606;BME280;43430;48.204;11.556;2022-08-21T12:49:43;95861.09;;;23.05;48.82
57606;BME280;43430;48.204;11.556;2022-08-21T12:52:21;95857.56;;;22.82;49.80
57606;BME280;43430;48.204;11.556;2022-08-21T12:54:47;95848.88;;;22.98;47.59
57606;BME280;43430;48.204;11.556;2022-08-21T12:57:22;95847.78;;;23.00;48.10
57606;BME280;43430;48.204;11.556;2022-08-21T12:59:53;95852.00;;;23.14;47.95
57606;BME280;43430;48.204;11.556;2022-08-21T13:02:22;95845.09;;;23.00;49.25
57606;BME280;43430;48.204;11.556;2022-08-21T13:04:49;95844.06;;;23.32;48.56
57606;BME280;43430;48.204;11.556;2022-08-21T13:07:19;95842.59;;;23.26;45.37
57606;BME280;43430;48.204;11.556;2022-08-21T13:10:00;95829.44;;;23.46;46.80
57606;BME280;43430;48.204;11.556;2022-08-21T13:12:27;95837.56;;;23.33;46.61
57606;BME280;43430;48.204;11.556;2022-08-21T13:14:56;95838.50;;;23.28;48.27
57606;BME280;43430;48.204;11.556;2022-08-21T13:17:24;95844.59;;;22.84;47.75
57606;BME280;43430;48.204;11.556;2022-08-21T13:20:04;95850.13;;;22.79;49.61
57606;BME280;43430;48.204;11.556;2022-08-21T13:22:30;95851.56;;;22.85;50.82
57606;BME280;43430;48.204;11.556;2022-08-21T13:24:56;95850.13;;;22.79;51.09
57606;BME280;43430;48.204;11.556;2022-08-21T13:27:24;95837.13;;;22.94;51.12
57606;BME280;43430;48.204;11.556;2022-08-21T13:30:08;95829.28;;;23.20;48.82
57606;BME280;43430;48.204;11.556;2022-08-21T13:32:38;95837.47;;;23.38;50.65
57606;BME280;43430;48.204;11.556;2022-08-21T13:35:17;95834.09;;;23.55;48.90
57606;BME280;43430;48.204;11.556;2022-08-21T13:37:44;95834.03;;;23.46;48.24
57606;BME280;43430;48.204;11.556;2022-08-21T13:40:14;95829.31;;;23.29;49.38
57606;BME280;43430;48.204;11.556;2022-08-21T13:42:42;95829.00;;;23.53;49.08
57606;BME280;43430;48.204;11.556;2022-08-21T13:45:22;95822.56;;;23.63;46.26
57606;BME280;43430;48.204;11.556;2022-08-21T13:47:49;95818.84;;;23.50;47.00
57606;BME280;43430;48.204;11.556;2022-08-21T13:50:16;95815.34;;;23.41;48.35
57606;BME280;43430;48.204;11.556;2022-08-21T13:52:56;95811.16;;;23.35;48.45
57606;BME280;43430;48.204;11.556;2022-08-21T13:55:22;95814.09;;;23.25;47.34
57606;BME280;43430;48.204;11.556;2022-08-21T13:57:59;95813.09;;;23.43;46.93
57606;BME280;43430;48.204;11.556;2022-08-21T14:00:30;95806.94;;;23.42;47.23